Time;durP1;ratioP1;P1;durP2;ratioP2;P2;SDS_P1;SDS_P2;PMS_P1;PMS_P2;Temp;Humidity;BMP_temperature;BMP_pressure;BME280_temperature;BME280_humidity;BME280_pressure;Samples;Min_cycle;Max_cycle;Signal;HPM_P1;HPM_P2
2021/09/01 00:00:58;;;;;;;;;21.75;17.75;;;;;;;;6303100;22;45305;-73
2021/09/01 00:03:23;;;;;;;;;17.00;16.00;;;;;;;;6303082;22;45634;-72
2021/09/01 00:05:49;;;;;;;;;19.50;17.00;;;;;;;;6303351;22;45296;-72
2021/09/01 00:08:14;;;;;;;;;20.75;19.75;;;;;;;;6303043;22;46289;-71
2021/09/01 00:10:40;;;;;;;;;23.00;18.75;;;;;;;;6303155;22;45277;-72
2021/09/01 00:13:05;;;;;;;;;18.25;17.00;;;;;;;;6303373;22;45372;-72
2021/09/01 00:15:30;;;;;;;;;20.00;19.50;;;;;;;;6303167;22;45214;-73
2021/09/01 00:17:55;;;;;;;;;23.00;19.25;;;;;;;;6303335;22;45340;-73
2021/09/01 00:20:21;;;;;;;;;19.25;17.50;;;;;;;;6302695;22;45218;-72
2021/09/01 00:22:47;;;;;;;;;18.50;17.50;;;;;;;;6304092;22;45221;-72
2021/09/01 00:25:12;;;;;;;;;25.00;22.25;;;;;;;;6304551;22;45229;-72
2021/09/01 00:27:37;;;;;;;;;16.25;15.50;;;;;;;;6304631;22;45375;-72
2021/09/01 00:30:03;;;;;;;;;23.25;21.00;;;;;;;;6304014;22;45198;-73
2021/09/01 00:32:28;;;;;;;;;24.25;18.75;;;;;;;;6276822;22;45245;-73
2021/09/01 00:34:54;;;;;;;;;17.75;16.00;;;;;;;;6304784;22;45139;-72
2021/09/01 00:37:19;;;;;;;;;18.00;17.25;;;;;;;;6304372;22;46033;-72
2021/09/01 00:39:44;;;;;;;;;20.00;19.25;;;;;;;;6305144;22;45216;-73
2021/09/01 00:42:09;;;;;;;;;18.50;17.50;;;;;;;;6305803;22;45158;-73
2021/09/01 00:44:35;;;;;;;;;20.75;18.00;;;;;;;;6303941;22;45233;-73
2021/09/01 00:47:02;;;;;;;;;22.50;20.50;;;;;;;;6305027;22;46195;-72
2021/09/01 00:49:27;;;;;;;;;22.00;16.75;;;;;;;;6304299;22;45345;-73
2021/09/01 00:51:53;;;;;;;;;23.25;20.75;;;;;;;;6304947;22;45307;-73
2021/09/01 00:54:23;;;;;;;;;18.00;16.25;;;;;;;;6276826;22;45337;-73
2021/09/01 00:56:52;;;;;;;;;18.75;17.25;;;;;;;;6304081;22;47373;-73
2021/09/01 00:59:18;;;;;;;;;27.25;21.50;;;;;;;;6303603;22;45331;-72
2021/09/01 01:01:44;;;;;;;;;24.50;22.50;;;;;;;;6305050;22;45285;-73
2021/09/01 01:04:10;;;;;;;;;21.25;21.00;;;;;;;;6305033;22;45394;-73
2021/09/01 01:06:35;;;;;;;;;22.00;19.75;;;;;;;;6276232;22;46121;-73
2021/09/01 01:09:00;;;;;;;;;27.75;23.25;;;;;;;;6304863;22;45387;-73
2021/09/01 01:11:25;;;;;;;;;26.50;21.75;;;;;;;;6304382;22;45245;-73
2021/09/01 01:13:51;;;;;;;;;24.50;22.50;;;;;;;;6304563;22;45385;-73
2021/09/01 01:16:17;;;;;;;;;20.25;18.50;;;;;;;;6304232;22;46371;-74
2021/09/01 01:18:46;;;;;;;;;17.00;17.00;;;;;;;;6304472;22;45179;-73
2021/09/01 01:21:15;;;;;;;;;22.00;21.25;;;;;;;;6304251;22;45349;-73
2021/09/01 01:23:40;;;;;;;;;23.00;18.00;;;;;;;;6304029;22;45472;-73
2021/09/01 01:26:05;;;;;;;;;22.50;20.50;;;;;;;;6304442;22;45322;-73
2021/09/01 01:28:30;;;;;;;;;23.00;20.25;;;;;;;;6303950;22;45478;-73
2021/09/01 01:30:56;;;;;;;;;19.75;13.00;;;;;;;;6304836;22;45229;-73
2021/09/01 01:33:21;;;;;;;;;24.25;21.00;;;;;;;;6304020;22;45395;-73
2021/09/01 01:35:47;;;;;;;;;30.75;24.50;;;;;;;;6304350;22;46019;-73
2021/09/01 01:38:14;;;;;;;;;22.75;21.50;;;;;;;;6304155;22;45349;-73
2021/09/01 01:40:40;;;;;;;;;24.50;22.00;;;;;;;;6304255;22;45278;-73
2021/09/01 01:43:05;;;;;;;;;23.50;21.25;;;;;;;;6304157;22;45460;-73
2021/09/01 01:45:32;;;;;;;;;27.00;26.25;;;;;;;;6303627;22;45896;-73
2021/09/01 01:47:57;;;;;;;;;26.25;22.50;;;;;;;;6276222;22;45552;-73
2021/09/01 01:50:22;;;;;;;;;21.25;20.00;;;;;;;;6304368;22;45342;-73
2021/09/01 01:52:48;;;;;;;;;23.50;21.25;;;;;;;;6304373;22;45375;-72
2021/09/01 01:55:13;;;;;;;;;25.50;22.50;;;;;;;;6276540;22;47412;-72
2021/09/01 01:57:38;;;;;;;;;22.75;21.50;;;;;;;;6303599;22;45295;-72
2021/09/01 02:00:04;;;;;;;;;30.00;27.00;;;;;;;;6304016;22;45233;-72
2021/09/01 02:02:31;;;;;;;;;27.00;24.25;;;;;;;;6303786;22;45245;-72
2021/09/01 02:04:59;;;;;;;;;28.00;25.75;;;;;;;;6303021;22;46011;-72
2021/09/01 02:07:25;;;;;;;;;27.25;24.75;;;;;;;;6304258;22;45229;-72
2021/09/01 02:09:51;;;;;;;;;26.75;26.75;;;;;;;;6304648;22;45226;-72
2021/09/01 02:12:16;;;;;;;;;29.00;24.00;;;;;;;;6303918;22;45401;-73
2021/09/01 02:14:41;;;;;;;;;27.50;26.50;;;;;;;;6303517;22;47428;-71
2021/09/01 02:19:42;;;;;;;;;25.25;21.75;;;;;;;;6223623;22;45309;-72
2021/09/01 02:22:07;;;;;;;;;23.00;20.25;;;;;;;;6303128;22;45365;-72
2021/09/01 02:24:32;;;;;;;;;26.75;25.50;;;;;;;;6303845;22;46051;-71
2021/09/01 02:26:57;;;;;;;;;29.50;26.00;;;;;;;;6303693;22;45283;-72
2021/09/01 02:29:22;;;;;;;;;25.75;24.25;;;;;;;;6276122;22;45252;-72
2021/09/01 02:31:47;;;;;;;;;29.50;26.00;;;;;;;;6304428;22;45411;-72
2021/09/01 02:34:13;;;;;;;;;32.25;28.50;;;;;;;;6304435;22;45212;-73
2021/09/01 02:36:38;;;;;;;;;33.00;22.50;;;;;;;;6303713;22;45189;-72
2021/09/01 02:39:03;;;;;;;;;32.50;29.50;;;;;;;;6304644;22;45266;-72
2021/09/01 02:41:29;;;;;;;;;36.00;30.50;;;;;;;;6304142;22;45391;-72
2021/09/01 02:43:54;;;;;;;;;25.50;22.25;;;;;;;;6304358;22;45392;-72
2021/09/01 02:46:19;;;;;;;;;31.50;28.00;;;;;;;;6304309;22;45249;-72
2021/09/01 02:48:45;;;;;;;;;30.50;22.00;;;;;;;;6304582;22;45205;-72
2021/09/01 02:51:10;;;;;;;;;32.50;26.25;;;;;;;;6275655;22;45460;-72
2021/09/01 02:53:35;;;;;;;;;24.75;24.75;;;;;;;;6275693;22;47256;-72
2021/09/01 02:56:01;;;;;;;;;30.00;26.75;;;;;;;;6304246;22;45306;-72
2021/09/01 02:58:26;;;;;;;;;25.25;25.25;;;;;;;;6304405;22;45228;-72
2021/09/01 03:00:51;;;;;;;;;34.25;29.00;;;;;;;;6304135;22;45437;-72
2021/09/01 03:03:16;;;;;;;;;28.75;22.75;;;;;;;;6304058;22;46165;-72
2021/09/01 03:05:42;;;;;;;;;30.00;24.75;;;;;;;;6303935;22;45337;-72
2021/09/01 03:08:08;;;;;;;;;20.50;19.50;;;;;;;;6304294;22;45198;-72
2021/09/01 03:10:33;;;;;;;;;28.00;26.75;;;;;;;;6303841;22;45502;-72
2021/09/01 03:12:58;;;;;;;;;31.50;28.25;;;;;;;;6303616;22;45918;-72
2021/09/01 03:15:23;;;;;;;;;28.50;25.25;;;;;;;;6275726;22;45288;-72
2021/09/01 03:17:48;;;;;;;;;26.75;25.50;;;;;;;;6303718;22;45246;-72
2021/09/01 03:20:14;;;;;;;;;32.50;28.00;;;;;;;;6303193;22;45259;-72
2021/09/01 03:22:39;;;;;;;;;25.75;23.00;;;;;;;;6302953;22;46179;-72
2021/09/01 03:25:05;;;;;;;;;32.50;28.25;;;;;;;;6303092;22;45242;-72
2021/09/01 03:27:30;;;;;;;;;32.00;27.25;;;;;;;;6303536;22;45119;-72
2021/09/01 03:29:55;;;;;;;;;26.75;23.50;;;;;;;;6303317;22;45208;-72
2021/09/01 03:32:20;;;;;;;;;26.50;21.00;;;;;;;;6303368;22;45377;-72
2021/09/01 03:34:45;;;;;;;;;24.50;21.50;;;;;;;;6303484;22;45189;-72
2021/09/01 03:37:11;;;;;;;;;27.50;23.50;;;;;;;;6304012;22;45315;-72
2021/09/01 03:39:36;;;;;;;;;23.25;21.75;;;;;;;;6303279;22;45366;-72
2021/09/01 03:42:01;;;;;;;;;25.75;23.75;;;;;;;;6302701;22;46032;-72
2021/09/01 03:44:26;;;;;;;;;28.75;26.00;;;;;;;;6303027;22;45308;-72
2021/09/01 03:46:51;;;;;;;;;26.50;26.50;;;;;;;;6303214;22;45268;-72
2021/09/01 03:49:17;;;;;;;;;28.00;26.00;;;;;;;;6303077;22;45185;-71
2021/09/01 03:51:46;;;;;;;;;30.75;26.75;;;;;;;;6275163;22;46987;-70
2021/09/01 03:54:11;;;;;;;;;32.00;22.75;;;;;;;;6303711;22;45361;-71
2021/09/01 03:56:37;;;;;;;;;27.00;25.00;;;;;;;;6304030;22;45264;-72
2021/09/01 03:59:02;;;;;;;;;28.25;27.50;;;;;;;;6304447;22;45285;-73
2021/09/01 04:01:28;;;;;;;;;38.75;33.25;;;;;;;;6304391;22;46158;-73
2021/09/01 04:03:53;;;;;;;;;34.75;30.25;;;;;;;;6303539;22;45272;-72
2021/09/01 04:06:18;;;;;;;;;31.75;29.50;;;;;;;;6304522;22;45277;-73
2021/09/01 04:08:43;;;;;;;;;35.50;28.25;;;;;;;;6303935;22;45410;-73
2021/09/01 04:11:08;;;;;;;;;29.25;24.25;;;;;;;;6303961;22;46021;-73
2021/09/01 04:13:34;;;;;;;;;24.25;23.00;;;;;;;;6304090;22;45177;-73
2021/09/01 04:15:59;;;;;;;;;29.75;27.25;;;;;;;;6304426;22;45311;-73
2021/09/01 04:18:24;;;;;;;;;26.75;24.50;;;;;;;;6303843;22;45195;-72
2021/09/01 04:20:49;;;;;;;;;33.50;30.75;;;;;;;;6304133;22;45346;-72
2021/09/01 04:23:15;;;;;;;;;30.25;27.75;;;;;;;;6304182;22;45237;-72
2021/09/01 04:25:40;;;;;;;;;32.50;30.00;;;;;;;;6304285;22;45239;-72
2021/09/01 04:28:05;;;;;;;;;32.25;28.00;;;;;;;;6303892;22;45420;-72
2021/09/01 04:30:30;;;;;;;;;30.25;27.50;;;;;;;;6275023;22;46974;-73
2021/09/01 04:32:55;;;;;;;;;33.00;28.50;;;;;;;;6303066;22;45217;-73
2021/09/01 04:35:20;;;;;;;;;32.00;25.00;;;;;;;;6304101;22;45479;-72
2021/09/01 04:37:46;;;;;;;;;27.50;26.25;;;;;;;;6304349;22;45401;-72
2021/09/01 04:40:11;;;;;;;;;33.00;31.00;;;;;;;;6302972;22;46132;-74
2021/09/01 04:42:36;;;;;;;;;31.50;26.25;;;;;;;;6303356;22;45196;-72
2021/09/01 04:45:02;;;;;;;;;26.00;23.25;;;;;;;;6304176;22;45360;-72
2021/09/01 04:47:27;;;;;;;;;30.25;27.00;;;;;;;;6302835;22;45301;-73
2021/09/01 04:49:52;;;;;;;;;30.00;26.50;;;;;;;;6303194;22;46152;-72
2021/09/01 04:52:18;;;;;;;;;27.00;24.00;;;;;;;;6275153;22;45352;-72
2021/09/01 04:54:43;;;;;;;;;33.25;27.25;;;;;;;;6303363;22;45263;-72
2021/09/01 04:57:08;;;;;;;;;26.25;23.75;;;;;;;;6303632;22;45193;-71
2021/09/01 04:59:33;;;;;;;;;31.50;26.75;;;;;;;;6303264;22;45228;-72
2021/09/01 05:01:58;;;;;;;;;26.25;24.00;;;;;;;;6302537;22;45291;-72
2021/09/01 05:04:24;;;;;;;;;28.00;24.75;;;;;;;;6303612;22;45268;-71
2021/09/01 05:06:49;;;;;;;;;28.50;27.50;;;;;;;;6303639;22;45320;-72
2021/09/01 05:09:14;;;;;;;;;28.25;25.75;;;;;;;;6302426;22;46447;-73
2021/09/01 05:11:39;;;;;;;;;33.50;29.75;;;;;;;;6303114;22;45327;-72
2021/09/01 05:14:04;;;;;;;;;33.25;26.75;;;;;;;;6303848;22;45182;-73
2021/09/01 05:16:30;;;;;;;;;30.50;24.00;;;;;;;;6303392;22;45532;-71
2021/09/01 05:18:55;;;;;;;;;34.25;25.75;;;;;;;;6303365;22;46445;-72
2021/09/01 05:21:20;;;;;;;;;30.25;25.75;;;;;;;;6302731;22;45338;-71
2021/09/01 05:23:49;;;;;;;;;32.75;27.00;;;;;;;;6303025;22;45334;-72
2021/09/01 05:26:16;;;;;;;;;31.25;30.00;;;;;;;;6303468;22;45193;-71
2021/09/01 05:28:43;;;;;;;;;29.50;27.00;;;;;;;;6302579;22;46037;-71
2021/09/01 05:31:09;;;;;;;;;27.50;25.00;;;;;;;;6301977;22;45352;-70
2021/09/01 05:33:35;;;;;;;;;35.50;28.25;;;;;;;;6303296;22;45306;-71
2021/09/01 05:36:02;;;;;;;;;28.25;21.25;;;;;;;;6302724;22;45357;-71
2021/09/01 05:38:29;;;;;;;;;25.00;24.00;;;;;;;;6302392;22;45280;-71
2021/09/01 05:40:56;;;;;;;;;34.25;28.00;;;;;;;;6302621;22;45255;-72
2021/09/01 05:43:21;;;;;;;;;28.75;21.50;;;;;;;;6303840;22;45249;-71
2021/09/01 05:45:48;;;;;;;;;30.75;28.00;;;;;;;;6302421;22;45157;-71
2021/09/01 05:48:13;;;;;;;;;29.75;25.50;;;;;;;;6303049;22;45172;-71
2021/09/01 05:50:42;;;;;;;;;36.50;28.50;;;;;;;;6302157;22;45323;-71
2021/09/01 05:53:11;;;;;;;;;32.50;26.50;;;;;;;;6303010;22;45229;-71
2021/09/01 05:55:37;;;;;;;;;28.75;26.50;;;;;;;;6303107;22;45214;-72
2021/09/01 05:58:03;;;;;;;;;26.50;24.25;;;;;;;;6302282;22;46565;-72
2021/09/01 06:00:31;;;;;;;;;33.50;28.75;;;;;;;;6301993;22;45226;-72
2021/09/01 06:02:58;;;;;;;;;29.75;24.25;;;;;;;;6302888;22;45296;-75
2021/09/01 06:05:24;;;;;;;;;32.50;25.75;;;;;;;;6302400;22;45452;-73
2021/09/01 06:07:51;;;;;;;;;27.50;27.50;;;;;;;;6302564;22;45238;-72
2021/09/01 06:10:21;;;;;;;;;23.50;22.75;;;;;;;;6302218;22;45157;-72
2021/09/01 06:12:47;;;;;;;;;34.50;31.50;;;;;;;;6301573;22;45332;-71
2021/09/01 06:15:12;;;;;;;;;31.50;29.00;;;;;;;;6302482;22;45155;-73
2021/09/01 06:17:37;;;;;;;;;26.00;25.50;;;;;;;;6302927;22;45360;-74
2021/09/01 06:20:02;;;;;;;;;32.00;26.50;;;;;;;;6302031;22;45353;-72
2021/09/01 06:22:28;;;;;;;;;29.75;28.75;;;;;;;;6302157;22;45247;-71
2021/09/01 06:24:53;;;;;;;;;28.25;25.75;;;;;;;;6301837;22;45324;-69
2021/09/01 06:27:18;;;;;;;;;29.00;25.50;;;;;;;;6302167;22;45262;-71
2021/09/01 06:29:43;;;;;;;;;32.00;28.75;;;;;;;;6301609;22;45279;-71
2021/09/01 06:32:09;;;;;;;;;29.25;25.75;;;;;;;;6301778;22;45295;-69
2021/09/01 06:34:35;;;;;;;;;31.00;27.25;;;;;;;;6302559;22;45471;-70
2021/09/01 06:37:00;;;;;;;;;28.75;26.25;;;;;;;;6301845;22;45305;-69
2021/09/01 06:39:25;;;;;;;;;34.00;28.25;;;;;;;;6302369;22;45255;-71
2021/09/01 06:41:51;;;;;;;;;25.25;24.50;;;;;;;;6302074;22;45205;-69
2021/09/01 06:44:16;;;;;;;;;33.50;28.00;;;;;;;;6274413;22;45474;-71
2021/09/01 06:46:41;;;;;;;;;39.25;32.00;;;;;;;;6301557;22;46181;-71
2021/09/01 06:49:06;;;;;;;;;24.75;24.75;;;;;;;;6301599;22;45213;-69
2021/09/01 06:51:32;;;;;;;;;36.00;29.25;;;;;;;;6302518;22;45276;-69
2021/09/01 06:53:57;;;;;;;;;23.50;23.00;;;;;;;;6301839;22;45370;-70
2021/09/01 06:56:22;;;;;;;;;30.00;26.75;;;;;;;;6273218;22;46582;-69
2021/09/01 06:58:47;;;;;;;;;29.00;23.75;;;;;;;;6274016;22;45190;-70
2021/09/01 07:01:13;;;;;;;;;33.00;27.50;;;;;;;;6301593;22;45216;-70
2021/09/01 07:03:38;;;;;;;;;30.75;27.00;;;;;;;;6302054;22;45289;-71
2021/09/01 07:06:03;;;;;;;;;27.25;22.75;;;;;;;;6301628;22;46054;-71
2021/09/01 07:08:28;;;;;;;;;30.25;27.50;;;;;;;;6301804;22;45619;-70
2021/09/01 07:10:54;;;;;;;;;30.50;26.50;;;;;;;;6301984;22;45331;-70
2021/09/01 07:13:19;;;;;;;;;27.00;25.00;;;;;;;;6301622;22;45363;-71
2021/09/01 07:15:44;;;;;;;;;30.50;26.25;;;;;;;;6301708;22;47088;-70
2021/09/01 07:18:10;;;;;;;;;33.25;31.00;;;;;;;;6302037;22;45472;-70
2021/09/01 07:20:35;;;;;;;;;24.50;22.00;;;;;;;;6302649;22;45834;-70
2021/09/01 07:23:00;;;;;;;;;33.25;29.75;;;;;;;;6301798;22;45445;-71
2021/09/01 07:25:26;;;;;;;;;24.50;24.25;;;;;;;;6301761;22;46434;-70
2021/09/01 07:27:51;;;;;;;;;30.50;27.75;;;;;;;;6301525;22;45562;-70
2021/09/01 07:30:16;;;;;;;;;27.75;25.25;;;;;;;;6302416;22;45244;-70
2021/09/01 07:32:41;;;;;;;;;30.75;24.00;;;;;;;;6303427;22;45252;-69
2021/09/01 07:35:07;;;;;;;;;28.25;24.25;;;;;;;;6303490;22;45335;-70
2021/09/01 07:37:32;;;;;;;;;29.50;26.00;;;;;;;;6303608;22;45306;-71
2021/09/01 07:39:57;;;;;;;;;25.25;24.00;;;;;;;;6302495;22;45197;-69
2021/09/01 07:42:22;;;;;;;;;27.25;24.00;;;;;;;;6302937;22;45436;-69
2021/09/01 07:44:48;;;;;;;;;28.50;27.50;;;;;;;;6274808;22;48399;-70
2021/09/01 07:47:13;;;;;;;;;28.25;25.50;;;;;;;;6303585;22;45338;-70
2021/09/01 07:49:38;;;;;;;;;25.00;20.75;;;;;;;;6303553;22;45270;-70
2021/09/01 07:52:04;;;;;;;;;27.00;25.50;;;;;;;;6302819;22;45353;-70
2021/09/01 07:54:29;;;;;;;;;19.75;16.75;;;;;;;;6302758;22;46104;-70
2021/09/01 07:56:54;;;;;;;;;28.00;26.75;;;;;;;;6303347;22;45277;-70
2021/09/01 07:59:19;;;;;;;;;32.50;28.25;;;;;;;;6303474;22;45200;-70
2021/09/01 08:01:45;;;;;;;;;32.25;30.00;;;;;;;;6303907;22;45178;-69
2021/09/01 08:04:10;;;;;;;;;24.25;23.25;;;;;;;;6303495;22;46512;-69
2021/09/01 08:06:35;;;;;;;;;28.50;24.25;;;;;;;;6303384;22;45222;-70
2021/09/01 08:09:00;;;;;;;;;28.25;24.00;;;;;;;;6274729;22;45446;-70
2021/09/01 08:11:26;;;;;;;;;28.00;21.50;;;;;;;;6303498;22;45472;-70
2021/09/01 08:13:51;;;;;;;;;30.00;27.25;;;;;;;;6303953;22;45839;-70
2021/09/01 08:16:16;;;;;;;;;30.25;26.50;;;;;;;;6303265;22;45257;-70
2021/09/01 08:18:41;;;;;;;;;25.50;19.00;;;;;;;;6302601;22;45193;-70
2021/09/01 08:21:07;;;;;;;;;25.75;21.50;;;;;;;;6303613;22;45220;-71
2021/09/01 08:23:32;;;;;;;;;24.25;24.25;;;;;;;;6302925;22;45270;-70
2021/09/01 08:25:57;;;;;;;;;22.00;20.25;;;;;;;;6271087;22;45309;-70
2021/09/01 08:28:22;;;;;;;;;26.00;25.75;;;;;;;;6272570;22;45289;-71
2021/09/01 08:30:48;;;;;;;;;31.50;26.25;;;;;;;;6272931;22;45138;-71
2021/09/01 08:33:13;;;;;;;;;21.75;21.75;;;;;;;;6271850;22;47231;-70
2021/09/01 08:35:38;;;;;;;;;23.50;23.50;;;;;;;;6272184;22;45182;-71
2021/09/01 08:38:03;;;;;;;;;29.75;23.75;;;;;;;;6272172;22;45325;-69
2021/09/01 08:40:29;;;;;;;;;27.75;22.50;;;;;;;;6272081;22;45149;-70
2021/09/01 08:42:54;;;;;;;;;28.50;25.50;;;;;;;;6271642;22;46254;-69
2021/09/01 08:45:19;;;;;;;;;33.00;26.00;;;;;;;;6272056;22;45313;-69
2021/09/01 08:47:44;;;;;;;;;27.50;25.75;;;;;;;;6271608;22;45256;-70
2021/09/01 08:50:11;;;;;;;;;27.00;26.50;;;;;;;;6272238;22;45186;-70
2021/09/01 08:52:37;;;;;;;;;26.50;23.75;;;;;;;;6271534;22;46115;-70
2021/09/01 08:55:07;;;;;;;;;27.75;25.00;;;;;;;;6271471;22;45368;-70
2021/09/01 08:57:32;;;;;;;;;33.25;26.00;;;;;;;;6272289;22;45260;-70
2021/09/01 08:59:57;;;;;;;;;30.00;25.75;;;;;;;;6271971;22;45425;-69
2021/09/01 09:02:27;;;;;;;;;26.25;24.75;;;;;;;;6271804;22;46246;-69
2021/09/01 09:04:52;;;;;;;;;27.00;24.50;;;;;;;;6271787;22;45360;-69
2021/09/01 09:07:18;;;;;;;;;21.75;20.00;;;;;;;;6272003;22;45433;-70
2021/09/01 09:09:43;;;;;;;;;21.00;20.00;;;;;;;;6271756;22;45337;-70
2021/09/01 09:12:11;;;;;;;;;24.75;22.75;;;;;;;;6271770;22;46277;-69
2021/09/01 09:14:40;;;;;;;;;20.25;20.00;;;;;;;;6272028;22;45275;-70
2021/09/01 09:17:16;;;;;;;;;24.25;19.50;;;;;;;;6271778;22;45240;-70
2021/09/01 09:19:42;;;;;;;;;27.75;23.25;;;;;;;;6271452;22;45442;-70
2021/09/01 09:22:08;;;;;;;;;17.00;17.00;;;;;;;;6271402;22;46143;-70
2021/09/01 09:24:34;;;;;;;;;21.25;20.25;;;;;;;;6271533;22;45300;-70
2021/09/01 09:26:59;;;;;;;;;26.50;23.75;;;;;;;;6270892;22;45271;-72
2021/09/01 09:29:24;;;;;;;;;19.75;17.50;;;;;;;;6270765;22;45369;-70
2021/09/01 09:32:04;;;;;;;;;23.75;21.00;;;;;;;;6271124;22;47426;-69
2021/09/01 09:34:34;;;;;;;;;23.75;21.25;;;;;;;;6271736;22;45367;-69
2021/09/01 09:37:00;;;;;;;;;24.00;20.75;;;;;;;;6271040;22;45249;-71
2021/09/01 09:39:35;;;;;;;;;14.25;11.75;;;;;;;;6270887;22;45396;-70
2021/09/01 09:42:01;;;;;;;;;26.75;25.00;;;;;;;;6270879;22;47232;-71
2021/09/01 09:44:26;;;;;;;;;23.25;22.50;;;;;;;;6271233;22;45209;-71
2021/09/01 09:46:51;;;;;;;;;17.75;14.25;;;;;;;;6271928;22;45386;-71
2021/09/01 09:49:26;;;;;;;;;19.50;18.00;;;;;;;;6271381;22;45350;-71
2021/09/01 09:51:51;;;;;;;;;24.25;22.75;;;;;;;;6271598;22;45257;-70
2021/09/01 09:54:18;;;;;;;;;24.75;22.00;;;;;;;;6270643;22;45320;-70
2021/09/01 09:56:44;;;;;;;;;16.00;16.00;;;;;;;;6272084;22;45159;-71
2021/09/01 09:59:13;;;;;;;;;18.00;15.50;;;;;;;;6271654;22;45465;-71
2021/09/01 10:01:38;;;;;;;;;19.00;18.50;;;;;;;;6271164;22;45312;-69
2021/09/01 10:04:04;;;;;;;;;20.25;20.25;;;;;;;;6271312;22;45269;-69
2021/09/01 10:06:30;;;;;;;;;20.00;20.00;;;;;;;;6271090;22;45253;-71
2021/09/01 10:08:55;;;;;;;;;20.75;18.25;;;;;;;;6271422;22;45186;-70
2021/09/01 10:11:25;;;;;;;;;25.25;17.25;;;;;;;;6271565;22;46821;-71
2021/09/01 10:13:50;;;;;;;;;22.25;19.00;;;;;;;;6271347;22;45320;-70
2021/09/01 10:16:22;;;;;;;;;22.75;21.50;;;;;;;;6271520;22;45380;-71
2021/09/01 10:18:49;;;;;;;;;22.75;21.25;;;;;;;;6271283;22;45309;-70
2021/09/01 10:21:16;;;;;;;;;25.50;21.00;;;;;;;;6243208;22;48086;-73
2021/09/01 10:23:42;;;;;;;;;20.25;17.50;;;;;;;;6271536;22;45323;-71
2021/09/01 10:26:20;;;;;;;;;12.00;12.00;;;;;;;;6243889;22;45408;-71
2021/09/01 10:28:45;;;;;;;;;22.25;20.50;;;;;;;;6271647;22;45372;-70
2021/09/01 10:31:11;;;;;;;;;19.50;17.25;;;;;;;;6271038;22;47284;-70
2021/09/01 10:33:37;;;;;;;;;18.25;16.50;;;;;;;;6271107;22;45322;-69
2021/09/01 10:36:21;;;;;;;;;14.25;14.25;;;;;;;;6272198;22;45404;-71
2021/09/01 10:38:46;;;;;;;;;16.25;15.25;;;;;;;;6270759;22;45381;-71
2021/09/01 10:41:12;;;;;;;;;17.00;15.75;;;;;;;;6271414;22;45245;-71
2021/09/01 10:43:37;;;;;;;;;18.25;16.50;;;;;;;;6271272;22;45201;-71
2021/09/01 10:46:02;;;;;;;;;20.25;19.50;;;;;;;;6270768;22;45260;-70
2021/09/01 10:48:28;;;;;;;;;15.50;14.50;;;;;;;;6271148;22;45398;-71
2021/09/01 10:50:53;;;;;;;;;21.25;18.00;;;;;;;;6271156;22;46028;-71
2021/09/01 10:53:28;;;;;;;;;16.25;15.75;;;;;;;;6270750;22;45226;-70
2021/09/01 10:55:59;;;;;;;;;20.75;16.25;;;;;;;;6271008;22;45273;-70
2021/09/01 10:58:30;;;;;;;;;22.75;18.75;;;;;;;;6270796;22;45384;-71
2021/09/01 11:01:19;;;;;;;;;21.50;15.25;;;;;;;;6270561;22;46020;-71
2021/09/01 11:03:59;;;;;;;;;21.50;18.00;;;;;;;;6254742;22;45458;-69
2021/09/01 11:06:25;;;;;;;;;23.00;17.25;;;;;;;;6270531;22;45373;-71
2021/09/01 11:08:54;;;;;;;;;18.25;16.25;;;;;;;;6270788;22;45272;-69
2021/09/01 11:11:19;;;;;;;;;14.75;13.00;;;;;;;;6270300;22;46075;-70
2021/09/01 11:13:44;;;;;;;;;15.25;15.25;;;;;;;;6271265;22;45151;-69
2021/09/01 11:16:35;;;;;;;;;13.50;12.75;;;;;;;;6270597;22;45131;-69
2021/09/01 11:19:11;;;;;;;;;16.00;16.00;;;;;;;;6264494;22;45399;-71
2021/09/01 11:21:43;;;;;;;;;17.25;17.00;;;;;;;;6269676;22;46021;-71
2021/09/01 11:24:10;;;;;;;;;11.50;10.75;;;;;;;;6270203;22;45222;-69
2021/09/01 11:26:35;;;;;;;;;14.75;14.75;;;;;;;;6270675;22;45271;-71
2021/09/01 11:29:04;;;;;;;;;16.50;14.25;;;;;;;;6270773;22;45349;-70
2021/09/01 11:31:29;;;;;;;;;12.67;12.00;;;;;;;;6270513;22;46183;-70
2021/09/01 11:33:55;;;;;;;;;16.75;13.00;;;;;;;;6270416;22;45277;-72
2021/09/01 11:36:22;;;;;;;;;20.25;17.00;;;;;;;;6271179;22;45188;-71
2021/09/01 11:38:47;;;;;;;;;15.50;15.00;;;;;;;;6270206;22;45247;-73
2021/09/01 11:41:13;;;;;;;;;13.25;12.00;;;;;;;;6269559;22;46222;-71
2021/09/01 11:43:38;;;;;;;;;13.75;13.50;;;;;;;;6270241;22;45197;-73
2021/09/01 11:46:03;;;;;;;;;15.25;15.25;;;;;;;;6271326;22;45289;-74
2021/09/01 11:48:41;;;;;;;;;12.75;12.75;;;;;;;;6270279;22;45313;-73
2021/09/01 11:51:07;;;;;;;;;15.25;13.25;;;;;;;;6242627;22;48821;-72
2021/09/01 11:53:39;;;;;;;;;14.50;12.00;;;;;;;;6270163;22;45392;-72
2021/09/01 11:56:08;;;;;;;;;12.67;12.67;;;;;;;;6270692;22;45245;-72
2021/09/01 11:58:33;;;;;;;;;10.75;10.75;;;;;;;;6270526;22;45357;-71
2021/09/01 12:01:00;;;;;;;;;13.50;12.25;;;;;;;;6269508;22;46420;-70
2021/09/01 12:03:26;;;;;;;;;17.25;14.25;;;;;;;;6269938;22;45376;-71
2021/09/01 12:06:10;;;;;;;;;14.00;13.00;;;;;;;;6270634;22;45293;-71
2021/09/01 12:08:42;;;;;;;;;12.00;12.00;;;;;;;;6270747;22;45273;-71
2021/09/01 12:11:08;;;;;;;;;14.00;13.00;;;;;;;;6269951;22;46995;-71
2021/09/01 12:13:39;;;;;;;;;13.00;11.33;;;;;;;;6270371;22;45304;-73
2021/09/01 12:16:05;;;;;;;;;14.75;13.25;;;;;;;;6270629;22;45238;-72
2021/09/01 12:18:46;;;;;;;;;13.33;12.33;;;;;;;;6271657;22;45580;-71
2021/09/01 12:21:11;;;;;;;;;16.00;14.67;;;;;;;;6271310;22;46016;-71
2021/09/01 12:23:37;;;;;;;;;11.75;11.25;;;;;;;;6271118;22;45169;-71
2021/09/01 12:26:04;;;;;;;;;12.67;11.33;;;;;;;;6271817;22;45343;-72
2021/09/01 12:28:30;;;;;;;;;13.00;12.25;;;;;;;;6271449;22;45358;-72
2021/09/01 12:30:55;;;;;;;;;8.50;8.50;;;;;;;;6270889;22;45181;-72
2021/09/01 12:33:21;;;;;;;;;14.75;13.75;;;;;;;;6271673;22;45306;-72
2021/09/01 12:35:57;;;;;;;;;12.33;11.33;;;;;;;;6271418;22;45367;-68
2021/09/01 12:38:23;;;;;;;;;12.33;11.33;;;;;;;;6271089;22;45420;-72
2021/09/01 12:40:49;;;;;;;;;11.00;11.00;;;;;;;;6271652;22;45837;-71
2021/09/01 12:43:14;;;;;;;;;14.00;12.25;;;;;;;;6271233;22;45287;-71
2021/09/01 12:45:40;;;;;;;;;13.00;10.00;;;;;;;;6270767;22;45395;-71
2021/09/01 12:48:08;;;;;;;;;12.00;12.00;;;;;;;;6270791;22;45399;-70
2021/09/01 12:50:37;;;;;;;;;10.50;9.25;;;;;;;;6270222;22;47012;-71
2021/09/01 12:53:07;;;;;;;;;13.75;11.50;;;;;;;;6271758;22;45317;-71
2021/09/01 12:55:34;;;;;;;;;11.25;10.00;;;;;;;;6271138;22;45309;-71
2021/09/01 12:57:59;;;;;;;;;11.00;11.00;;;;;;;;6270762;22;45387;-70
2021/09/01 13:00:25;;;;;;;;;13.00;13.00;;;;;;;;6270441;22;47043;-72
2021/09/01 13:02:50;;;;;;;;;11.00;9.33;;;;;;;;6271480;22;45335;-70
2021/09/01 13:05:16;;;;;;;;;12.67;12.00;;;;;;;;6271367;22;45292;-71
2021/09/01 13:07:41;;;;;;;;;10.33;10.33;;;;;;;;6271004;22;45415;-70
2021/09/01 13:10:06;;;;;;;;;15.25;13.50;;;;;;;;6270489;22;47503;-70
2021/09/01 13:12:32;;;;;;;;;14.00;12.25;;;;;;;;6271195;22;45396;-74
2021/09/01 13:14:57;;;;;;;;;13.75;12.50;;;;;;;;6270699;22;45450;-70
2021/09/01 13:17:22;;;;;;;;;9.75;9.75;;;;;;;;6269976;22;45470;-70
2021/09/01 13:19:47;;;;;;;;;12.25;12.25;;;;;;;;6270310;22;46902;-70
2021/09/01 13:22:13;;;;;;;;;12.50;12.50;;;;;;;;6270327;22;45235;-70
2021/09/01 13:24:38;;;;;;;;;13.25;10.25;;;;;;;;6272232;22;45238;-72
2021/09/01 13:27:03;;;;;;;;;10.00;10.00;;;;;;;;6272513;22;45384;-73
2021/09/01 13:29:29;;;;;;;;;11.00;9.50;;;;;;;;6270848;22;45249;-72
2021/09/01 13:31:54;;;;;;;;;11.50;10.50;;;;;;;;6271934;22;45210;-73
2021/09/01 13:34:19;;;;;;;;;14.25;10.25;;;;;;;;6243465;22;45245;-71
2021/09/01 13:36:44;;;;;;;;;11.00;10.00;;;;;;;;6271029;22;45231;-72
2021/09/01 13:39:09;;;;;;;;;13.75;11.75;;;;;;;;6271266;22;46208;-72
2021/09/01 13:41:35;;;;;;;;;10.00;9.50;;;;;;;;6271870;22;45346;-75
2021/09/01 13:44:00;;;;;;;;;8.25;8.25;;;;;;;;6271665;22;45202;-78
2021/09/01 13:46:28;;;;;;;;;9.33;9.33;;;;;;;;6271843;22;45253;-76
2021/09/01 13:48:54;;;;;;;;;9.67;9.67;;;;;;;;6270997;22;46106;-73
2021/09/01 13:51:19;;;;;;;;;11.25;10.50;;;;;;;;6271273;22;45293;-73
2021/09/01 13:53:44;;;;;;;;;11.25;11.25;;;;;;;;6271588;22;45537;-73
2021/09/01 13:56:09;;;;;;;;;12.50;12.50;;;;;;;;6271675;22;45307;-74
2021/09/01 13:58:35;;;;;;;;;11.33;11.33;;;;;;;;6270849;22;45341;-70
2021/09/01 14:01:00;;;;;;;;;14.75;12.75;;;;;;;;6271010;22;45374;-69
2021/09/01 14:03:29;;;;;;;;;9.00;9.00;;;;;;;;6271271;22;45294;-73
2021/09/01 14:05:54;;;;;;;;;12.33;10.67;;;;;;;;6271043;22;45393;-73
2021/09/01 14:08:19;;;;;;;;;8.33;8.33;;;;;;;;6270716;22;45143;-76
2021/09/01 14:10:44;;;;;;;;;12.00;11.00;;;;;;;;6271306;22;45190;-73
2021/09/01 14:13:10;;;;;;;;;13.67;11.33;;;;;;;;6271238;22;45163;-73
2021/09/01 14:15:35;;;;;;;;;13.50;13.50;;;;;;;;6271956;22;45267;-72